Etusivu
METAR-TAF:

METAR-TAF

Lentoasemat :

Ann Arbor, Michigan, Yhdysvallat

Leveyspiiri: 42-13-26N, Pituuspiiri: 083-44-24W, korkeus merenpinnasta: 255 m

Tämänhetkinen sää

Tämä raportti tehtiin 45 minuuttia sitten, kello 05.53 UTC
Tuuli 3 kn lännestä/luoteesta
Lämpötila 2°C
Kosteus 87%
Ilmanpaine 1019 hPa
Näkyvyys: 16.1 km
selkeää

METAR: KARB 020553Z AUTO 30003KT 10SM CLR 02/00 A3008 RMK AO2 SLP193 T00220000 10078 20011 51003

Aika: 02:38 (06:38 UTC)


TAF: puuttuu

Säähavainnot ja -ennusteet yli 4000 lentoasemalta (METAR- ja TAF-raportit).

Käytössä olevat sääasemat on merkitty karttaan keltaisilla ja punaisilla pisteillä.

Aseta hiiri pisteen päälle nähdäksesi sääaseman nimen.

Klikkaa sitten nähdäksesi säähavainnot ja -ennusteet.

Kartan vaihtaminen: klikkaa mustalla rastilla varustettuja vihreitä pisteitä, niin voit zoomata sisään; viivalla varustettua vihreää pistettä, niin voit zoomata ulos tai vihreitä nuolia, niin pääset viereisille kartoille.


METAR-TAF: